createdAt,value
2018-10-01T00:01:14.451Z,100854.83
2018-10-01T00:06:16.643Z,100861.10
2018-10-01T00:11:19.360Z,100862.83
2018-10-01T00:16:21.527Z,100852.95
2018-10-01T00:22:26.904Z,100856.25
2018-10-01T00:27:29.062Z,100845.49
2018-10-01T00:32:31.180Z,100857.84
2018-10-01T00:37:33.351Z,100858.70
2018-10-01T00:42:35.881Z,100854.47
2018-10-01T00:47:38.047Z,100853.93
2018-10-01T00:52:40.516Z,100850.89
2018-10-01T00:57:42.722Z,100855.62
2018-10-01T01:02:45.227Z,100849.76
2018-10-01T01:07:47.384Z,100839.88
2018-10-01T01:12:49.520Z,100847.52
2018-10-01T01:17:51.721Z,100843.36
2018-10-01T01:22:53.869Z,100850.02
2018-10-01T01:27:56.058Z,100842.24
2018-10-01T01:32:58.196Z,100836.84
2018-10-01T01:38:00.751Z,100826.27
2018-10-01T01:43:02.978Z,100810.72
2018-10-01T01:48:05.286Z,100825.66
2018-10-01T01:53:08.946Z,100824.86
2018-10-01T01:58:11.135Z,100820.55
2018-10-01T02:03:13.714Z,100817.45
2018-10-01T02:08:15.879Z,100816.55
2018-10-01T02:13:18.030Z,100819.11
2018-10-01T02:18:20.169Z,100821.69
2018-10-01T02:23:22.331Z,100825.78
2018-10-01T02:28:24.553Z,100824.73
2018-10-01T02:33:26.672Z,100824.27
2018-10-01T02:38:28.773Z,100823.06
2018-10-01T02:43:30.887Z,100820.89
2018-10-01T02:48:33.042Z,100821.51
2018-10-01T02:53:40.856Z,100817.31
2018-10-01T02:58:43.059Z,100812.97
2018-10-01T03:03:45.124Z,100809.64
2018-10-01T03:08:47.489Z,100813.00
2018-10-01T03:13:49.659Z,100814.31
2018-10-01T03:18:51.798Z,100811.70
2018-10-01T03:23:53.964Z,100811.62
2018-10-01T03:28:56.080Z,100804.90
2018-10-01T03:33:58.200Z,100802.15
2018-10-01T03:39:00.298Z,100796.90
2018-10-01T03:44:02.461Z,100791.44
2018-10-01T03:49:04.652Z,100788.29
2018-10-01T03:54:06.772Z,100791.30
2018-10-01T03:59:08.927Z,100786.80
2018-10-01T04:04:11.060Z,100782.47
2018-10-01T04:09:13.144Z,100778.63
2018-10-01T04:14:15.203Z,100778.23
2018-10-01T04:19:17.335Z,100782.06
2018-10-01T04:24:19.437Z,100774.65
2018-10-01T04:29:21.605Z,100785.58
2018-10-01T04:34:23.766Z,100784.31
2018-10-01T04:39:25.882Z,100782.39
2018-10-01T04:44:28.028Z,100779.75
2018-10-01T04:49:30.165Z,100792.66
2018-10-01T04:54:32.335Z,100796.32
2018-10-01T04:59:34.445Z,100800.12
2018-10-01T05:04:36.546Z,100808.41
2018-10-01T05:09:38.656Z,100807.45
2018-10-01T05:14:40.845Z,100804.42
2018-10-01T05:19:42.885Z,100813.83
2018-10-01T05:24:45.019Z,100817.98
2018-10-01T05:29:47.129Z,100812.80
2018-10-01T05:34:49.233Z,100817.75
2018-10-01T05:39:51.363Z,100827.84
2018-10-01T05:44:53.470Z,100831.13
2018-10-01T05:49:55.659Z,100829.50
2018-10-01T05:54:57.847Z,100837.46
2018-10-01T05:59:59.944Z,100842.02
2018-10-01T06:05:02.103Z,100837.66
2018-10-01T06:10:04.241Z,100844.66
2018-10-01T06:15:06.410Z,100850.36
2018-10-01T06:20:08.528Z,100845.77
2018-10-01T06:25:10.680Z,100852.09
2018-10-01T06:30:12.801Z,100853.36
2018-10-01T06:35:14.955Z,100845.92
2018-10-01T06:40:17.055Z,100842.73
2018-10-01T06:45:19.198Z,100849.56
2018-10-01T06:50:21.400Z,100853.20
2018-10-01T06:55:23.625Z,100855.02
2018-10-01T07:00:25.763Z,100857.39
2018-10-01T07:05:27.922Z,100860.70
2018-10-01T07:10:30.074Z,100861.70
2018-10-01T07:15:32.226Z,100876.30
2018-10-01T07:20:34.410Z,100876.03
2018-10-01T07:25:36.587Z,100882.71
2018-10-01T07:30:38.764Z,100883.19
2018-10-01T07:35:40.870Z,100889.05
2018-10-01T07:40:43.004Z,100889.80
2018-10-01T07:45:45.230Z,100891.74
2018-10-01T07:50:47.453Z,100890.42
2018-10-01T07:55:49.578Z,100892.27
2018-10-01T08:00:51.725Z,100895.17
2018-10-01T08:05:53.862Z,100890.86
2018-10-01T08:10:56.026Z,100894.23
2018-10-01T08:15:58.218Z,100900.50
2018-10-01T08:21:00.293Z,100900.95
2018-10-01T08:26:02.546Z,100902.91
2018-10-01T08:31:04.655Z,100908.19
2018-10-01T08:36:06.941Z,100898.52
2018-10-01T08:41:09.127Z,100905.89
2018-10-01T08:46:11.232Z,100905.16
2018-10-01T08:51:18.282Z,100904.53
2018-10-01T08:56:21.523Z,100903.20
2018-10-01T09:01:23.693Z,100912.53
2018-10-01T09:06:25.855Z,100912.94
2018-10-01T09:11:28.040Z,100913.95
2018-10-01T09:16:30.158Z,100912.28
2018-10-01T09:21:32.991Z,100914.70
2018-10-01T09:26:35.154Z,100916.89
2018-10-01T09:31:37.291Z,100926.31
2018-10-01T09:36:39.520Z,100927.02
2018-10-01T09:41:41.705Z,100922.83
2018-10-01T09:46:43.865Z,100913.86
2018-10-01T09:51:46.081Z,100912.31
2018-10-01T09:56:48.260Z,100909.18
2018-10-01T10:01:50.419Z,100908.00
2018-10-01T10:06:52.586Z,100905.85
2018-10-01T10:11:54.746Z,100913.12
2018-10-01T10:16:56.921Z,100913.22
2018-10-01T10:21:59.063Z,100914.34
2018-10-01T10:27:01.205Z,100910.29
2018-10-01T10:32:03.393Z,100909.06
2018-10-01T10:37:05.758Z,100914.27
2018-10-01T10:42:07.923Z,100922.52
2018-10-01T10:47:10.035Z,100936.73
2018-10-01T10:52:12.264Z,100941.12
2018-10-01T10:57:14.422Z,100945.52
2018-10-01T11:02:16.620Z,100958.27
2018-10-01T11:07:18.784Z,100962.87
2018-10-01T11:12:21.002Z,100965.25
2018-10-01T11:17:23.189Z,100973.17
2018-10-01T11:22:25.403Z,100963.04
2018-10-01T11:27:27.593Z,100976.84
2018-10-01T11:32:29.755Z,100983.52
2018-10-01T11:37:31.937Z,100980.97
2018-10-01T11:42:34.177Z,100998.48
2018-10-01T11:47:36.377Z,100989.13
2018-10-01T11:52:38.580Z,100991.61
2018-10-01T11:57:41.081Z,100977.47
2018-10-01T12:02:43.193Z,100976.63
2018-10-01T12:07:45.367Z,100975.36
2018-10-01T12:12:47.494Z,100970.45
2018-10-01T12:17:49.644Z,100971.94
2018-10-01T12:22:51.777Z,100973.38
2018-10-01T12:27:53.939Z,100966.42
2018-10-01T12:32:56.140Z,100959.94
2018-10-01T12:37:58.224Z,100966.56
2018-10-01T12:43:00.899Z,100962.80
2018-10-01T12:48:03.066Z,100962.16
2018-10-01T12:53:05.248Z,100969.66
2018-10-01T12:58:07.441Z,100966.48
2018-10-01T13:03:09.633Z,100976.09
2018-10-01T13:08:11.795Z,100971.73
2018-10-01T13:13:13.925Z,100968.34
2018-10-01T13:18:16.165Z,100978.91
2018-10-01T13:23:18.270Z,100988.98
2018-10-01T13:28:21.276Z,100995.63
2018-10-01T13:33:23.451Z,100990.81
2018-10-01T13:38:25.579Z,100997.45
2018-10-01T13:43:27.738Z,100998.70
2018-10-01T13:48:29.969Z,100988.42
2018-10-01T13:53:32.173Z,100991.08
2018-10-01T13:58:34.521Z,100986.31
2018-10-01T14:03:36.747Z,100986.49
2018-10-01T14:08:38.904Z,100980.16
2018-10-01T14:13:41.115Z,100964.84
2018-10-01T14:18:43.208Z,100959.37
2018-10-01T14:23:45.371Z,100976.59
2018-10-01T14:28:47.716Z,100973.25
2018-10-01T14:33:49.942Z,100975.63
2018-10-01T14:38:52.542Z,100969.23
2018-10-01T14:43:54.721Z,100969.63
2018-10-01T14:48:57.009Z,100977.80
2018-10-01T14:53:59.356Z,100978.26
2018-10-01T14:59:01.504Z,100987.85
2018-10-01T15:04:03.680Z,100990.40
2018-10-01T15:09:07.896Z,100992.05
2018-10-01T15:14:10.533Z,100994.69
2018-10-01T15:19:12.737Z,100998.40
2018-10-01T15:24:14.945Z,101003.56
2018-10-01T15:29:17.153Z,101004.79
2018-10-01T15:34:19.299Z,101015.95
2018-10-01T15:39:21.443Z,101017.52
2018-10-01T15:44:23.708Z,101033.22
2018-10-01T15:49:25.959Z,101037.25
2018-10-01T15:54:28.157Z,101047.39
2018-10-01T15:59:30.352Z,101058.66
2018-10-01T16:04:32.511Z,101062.77
2018-10-01T16:09:34.667Z,101075.19
2018-10-01T16:14:36.843Z,101077.91
2018-10-01T16:19:38.989Z,101078.38
2018-10-01T16:24:41.179Z,101084.08
2018-10-01T16:29:43.368Z,101091.30
2018-10-01T16:34:45.544Z,101098.64
2018-10-01T16:39:47.714Z,101105.15
2018-10-01T16:44:50.089Z,101123.38
2018-10-01T16:49:52.308Z,101114.91
2018-10-01T16:54:54.503Z,101112.53
2018-10-01T16:59:56.639Z,101027.45
2018-10-01T17:04:58.840Z,101109.86
2018-10-01T17:10:01.104Z,101109.77
2018-10-01T17:15:03.302Z,101119.08
2018-10-01T17:20:05.575Z,101132.11
2018-10-01T17:25:07.782Z,101147.05
2018-10-01T17:30:09.974Z,101160.20
2018-10-01T17:35:12.167Z,101151.91
2018-10-01T17:40:14.379Z,101154.59
2018-10-01T17:45:16.577Z,101160.83
2018-10-01T17:50:18.851Z,101161.09
2018-10-01T17:55:21.284Z,101166.86
2018-10-01T18:00:23.547Z,101166.80
2018-10-01T18:05:25.712Z,101181.89
2018-10-01T18:10:27.893Z,101179.48
2018-10-01T18:15:30.106Z,101176.42
2018-10-01T18:20:32.323Z,101172.14
2018-10-01T18:25:34.535Z,101179.90
2018-10-01T18:30:36.788Z,101178.70
2018-10-01T18:35:39.040Z,101183.80
2018-10-01T18:40:42.387Z,101180.17
2018-10-01T18:45:44.669Z,101186.84
2018-10-01T18:50:47.096Z,101188.97
2018-10-01T18:55:49.443Z,101190.05
2018-10-01T19:00:51.731Z,101185.97
2018-10-01T19:05:54.079Z,101199.93
2018-10-01T19:10:56.369Z,101201.10
2018-10-01T19:15:58.777Z,101208.09
2018-10-01T19:21:01.278Z,101204.64
2018-10-01T19:26:03.547Z,101207.67
2018-10-01T19:31:05.792Z,101208.30
2018-10-01T19:36:08.155Z,101215.30
2018-10-01T19:41:10.535Z,101221.03
2018-10-01T19:46:13.264Z,101226.03
2018-10-01T19:51:15.670Z,101231.13
2018-10-01T19:56:18.047Z,101230.45
2018-10-01T20:01:20.326Z,101236.77
2018-10-01T20:06:22.542Z,101234.69
2018-10-01T20:11:24.839Z,101243.08
2018-10-01T20:16:26.971Z,101244.16
2018-10-01T20:21:29.258Z,101247.50
2018-10-01T20:26:31.622Z,101254.80
2018-10-01T20:31:33.760Z,101253.03
2018-10-01T20:36:36.190Z,101255.46
2018-10-01T20:41:38.376Z,101245.09
2018-10-01T20:46:40.549Z,101244.22
2018-10-01T20:51:42.747Z,101237.31
2018-10-01T20:56:44.976Z,101247.27
2018-10-01T21:01:47.189Z,101244.74
2018-10-01T21:06:49.351Z,101241.41
2018-10-01T21:11:51.565Z,101236.42
2018-10-01T21:16:53.746Z,101244.06
2018-10-01T21:21:55.928Z,101236.41
2018-10-01T21:26:58.495Z,101236.13
2018-10-01T21:32:00.694Z,101238.39
2018-10-01T21:37:02.957Z,101234.98
2018-10-01T21:42:05.317Z,101239.77
2018-10-01T21:47:09.392Z,101252.40
2018-10-01T21:52:11.592Z,101248.16
2018-10-01T21:57:13.971Z,101254.76
2018-10-01T22:02:16.127Z,101248.13
2018-10-01T22:07:18.640Z,101243.23
2018-10-01T22:12:20.824Z,101240.37
2018-10-01T22:17:23.013Z,101245.41
2018-10-01T22:22:25.169Z,101246.25
2018-10-01T22:27:27.307Z,101238.52
2018-10-01T22:32:29.451Z,101243.39
2018-10-01T22:37:31.598Z,101237.13
2018-10-01T22:42:33.762Z,101243.44
2018-10-01T22:47:35.992Z,101237.30
2018-10-01T22:52:38.170Z,101244.22
2018-10-01T22:57:40.570Z,101251.55
2018-10-01T23:02:42.733Z,101243.11
2018-10-01T23:07:44.867Z,101244.77
2018-10-01T23:12:47.000Z,101245.96
2018-10-01T23:17:49.123Z,101239.88
2018-10-01T23:22:51.242Z,101234.98
2018-10-01T23:27:53.383Z,101227.31
2018-10-01T23:32:55.457Z,101230.26
2018-10-01T23:37:57.631Z,101235.81
2018-10-01T23:42:59.793Z,101233.17
2018-10-01T23:48:01.902Z,101233.84
2018-10-01T23:53:04.427Z,101230.21
2018-10-01T23:58:06.566Z,101239.38
